sensor_id;sensor_type;location;lat;lon;timestamp;P1;durP1;ratioP1;P2;durP2;ratioP2
56299;SDS011;42209;6.376;-10.782;2023-02-03T00:00:03;16.90;;;10.48;;
56299;SDS011;42209;6.376;-10.782;2023-02-03T00:02:39;10.90;;;8.85;;
56299;SDS011;42209;6.376;-10.782;2023-02-03T00:05:08;16.23;;;10.50;;
56299;SDS011;42209;6.376;-10.782;2023-02-03T00:07:36;16.10;;;10.80;;
56299;SDS011;42209;6.376;-10.782;2023-02-03T00:10:06;13.60;;;10.13;;
56299;SDS011;42209;6.376;-10.782;2023-02-03T00:12:35;17.10;;;10.10;;
56299;SDS011;42209;6.376;-10.782;2023-02-03T00:15:03;14.27;;;9.45;;
56299;SDS011;42209;6.376;-10.782;2023-02-03T00:17:35;14.13;;;9.85;;
56299;SDS011;42209;6.376;-10.782;2023-02-03T00:20:04;13.10;;;10.38;;
56299;SDS011;42209;6.376;-10.782;2023-02-03T00:22:33;14.70;;;10.57;;
56299;SDS011;42209;6.376;-10.782;2023-02-03T00:25:01;11.48;;;9.77;;
56299;SDS011;42209;6.376;-10.782;2023-02-03T00:27:30;14.27;;;10.80;;
56299;SDS011;42209;6.376;-10.782;2023-02-03T00:29:59;17.73;;;9.88;;
56299;SDS011;42209;6.376;-10.782;2023-02-03T00:32:28;14.23;;;9.98;;
56299;SDS011;42209;6.376;-10.782;2023-02-03T00:34:58;13.75;;;9.90;;
56299;SDS011;42209;6.376;-10.782;2023-02-03T00:37:26;14.68;;;10.35;;
56299;SDS011;42209;6.376;-10.782;2023-02-03T00:39:54;15.48;;;10.23;;
56299;SDS011;42209;6.376;-10.782;2023-02-03T00:42:23;14.75;;;10.38;;
56299;SDS011;42209;6.376;-10.782;2023-02-03T00:44:51;13.07;;;9.90;;
56299;SDS011;42209;6.376;-10.782;2023-02-03T00:47:20;13.13;;;10.00;;
56299;SDS011;42209;6.376;-10.782;2023-02-03T00:49:49;13.77;;;10.30;;
56299;SDS011;42209;6.376;-10.782;2023-02-03T00:52:17;14.80;;;10.07;;
56299;SDS011;42209;6.376;-10.782;2023-02-03T00:54:46;12.88;;;9.50;;
56299;SDS011;42209;6.376;-10.782;2023-02-03T00:57:15;16.60;;;10.63;;
56299;SDS011;42209;6.376;-10.782;2023-02-03T00:59:43;15.77;;;9.63;;
56299;SDS011;42209;6.376;-10.782;2023-02-03T01:02:12;14.48;;;9.77;;
56299;SDS011;42209;6.376;-10.782;2023-02-03T01:04:40;15.48;;;10.63;;
56299;SDS011;42209;6.376;-10.782;2023-02-03T01:07:09;13.32;;;9.30;;
56299;SDS011;42209;6.376;-10.782;2023-02-03T01:09:37;13.45;;;8.88;;
56299;SDS011;42209;6.376;-10.782;2023-02-03T01:12:06;12.05;;;8.65;;
56299;SDS011;42209;6.376;-10.782;2023-02-03T01:14:34;11.77;;;9.55;;
56299;SDS011;42209;6.376;-10.782;2023-02-03T01:17:03;13.32;;;9.88;;
56299;SDS011;42209;6.376;-10.782;2023-02-03T01:19:31;14.90;;;10.25;;
56299;SDS011;42209;6.376;-10.782;2023-02-03T01:22:00;12.65;;;10.02;;
56299;SDS011;42209;6.376;-10.782;2023-02-03T01:24:29;14.73;;;9.88;;
56299;SDS011;42209;6.376;-10.782;2023-02-03T01:26:57;15.88;;;11.23;;
56299;SDS011;42209;6.376;-10.782;2023-02-03T01:29:26;15.50;;;11.32;;
56299;SDS011;42209;6.376;-10.782;2023-02-03T01:31:55;13.30;;;9.98;;
56299;SDS011;42209;6.376;-10.782;2023-02-03T01:34:23;16.17;;;11.07;;
56299;SDS011;42209;6.376;-10.782;2023-02-03T01:36:52;14.23;;;10.63;;
56299;SDS011;42209;6.376;-10.782;2023-02-03T01:39:23;16.25;;;11.55;;
56299;SDS011;42209;6.376;-10.782;2023-02-03T01:41:53;14.32;;;10.90;;
56299;SDS011;42209;6.376;-10.782;2023-02-03T01:47:30;15.68;;;11.25;;
56299;SDS011;42209;6.376;-10.782;2023-02-03T01:50:13;17.17;;;10.55;;
56299;SDS011;42209;6.376;-10.782;2023-02-03T01:52:43;15.10;;;11.18;;
56299;SDS011;42209;6.376;-10.782;2023-02-03T01:55:15;15.30;;;10.65;;
56299;SDS011;42209;6.376;-10.782;2023-02-03T01:57:48;17.92;;;11.85;;
56299;SDS011;42209;6.376;-10.782;2023-02-03T02:00:27;17.25;;;12.38;;
56299;SDS011;42209;6.376;-10.782;2023-02-03T02:02:56;15.88;;;11.68;;
56299;SDS011;42209;6.376;-10.782;2023-02-03T02:05:29;15.63;;;11.43;;
56299;SDS011;42209;6.376;-10.782;2023-02-03T02:08:12;16.25;;;11.38;;
56299;SDS011;42209;6.376;-10.782;2023-02-03T02:10:41;17.67;;;11.77;;
56299;SDS011;42209;6.376;-10.782;2023-02-03T02:13:11;17.10;;;11.70;;
56299;SDS011;42209;6.376;-10.782;2023-02-03T02:15:57;17.27;;;12.98;;
56299;SDS011;42209;6.376;-10.782;2023-02-03T02:18:33;17.13;;;11.07;;
56299;SDS011;42209;6.376;-10.782;2023-02-03T02:24:23;14.98;;;11.07;;
56299;SDS011;42209;6.376;-10.782;2023-02-03T02:27:06;17.52;;;11.55;;
56299;SDS011;42209;6.376;-10.782;2023-02-03T02:29:57;15.43;;;10.88;;
56299;SDS011;42209;6.376;-10.782;2023-02-03T02:35:25;15.27;;;10.85;;
56299;SDS011;42209;6.376;-10.782;2023-02-03T02:41:09;20.02;;;13.38;;
56299;SDS011;42209;6.376;-10.782;2023-02-03T02:44:02;15.60;;;12.45;;
56299;SDS011;42209;6.376;-10.782;2023-02-03T02:46:47;14.15;;;11.32;;
56299;SDS011;42209;6.376;-10.782;2023-02-03T02:49:20;16.70;;;11.95;;
56299;SDS011;42209;6.376;-10.782;2023-02-03T02:52:02;19.25;;;11.82;;
56299;SDS011;42209;6.376;-10.782;2023-02-03T02:54:34;16.33;;;12.27;;
56299;SDS011;42209;6.376;-10.782;2023-02-03T02:57:09;19.20;;;13.00;;
56299;SDS011;42209;6.376;-10.782;2023-02-03T02:59:40;18.08;;;13.05;;
56299;SDS011;42209;6.376;-10.782;2023-02-03T03:02:09;18.67;;;13.13;;
56299;SDS011;42209;6.376;-10.782;2023-02-03T03:04:38;17.60;;;13.93;;
56299;SDS011;42209;6.376;-10.782;2023-02-03T03:07:13;17.40;;;12.90;;
56299;SDS011;42209;6.376;-10.782;2023-02-03T03:09:52;18.42;;;15.23;;
56299;SDS011;42209;6.376;-10.782;2023-02-03T03:12:30;20.55;;;13.27;;
56299;SDS011;42209;6.376;-10.782;2023-02-03T03:15:17;18.70;;;13.50;;
56299;SDS011;42209;6.376;-10.782;2023-02-03T03:17:54;17.70;;;12.82;;
56299;SDS011;42209;6.376;-10.782;2023-02-03T03:20:32;19.08;;;13.88;;
56299;SDS011;42209;6.376;-10.782;2023-02-03T03:23:04;19.17;;;14.25;;
56299;SDS011;42209;6.376;-10.782;2023-02-03T03:25:38;21.00;;;13.50;;
56299;SDS011;42209;6.376;-10.782;2023-02-03T03:28:13;21.27;;;14.00;;
56299;SDS011;42209;6.376;-10.782;2023-02-03T03:30:47;22.67;;;15.23;;
56299;SDS011;42209;6.376;-10.782;2023-02-03T03:33:16;21.38;;;15.70;;
56299;SDS011;42209;6.376;-10.782;2023-02-03T03:35:47;20.38;;;14.65;;
56299;SDS011;42209;6.376;-10.782;2023-02-03T03:38:29;18.42;;;13.57;;
56299;SDS011;42209;6.376;-10.782;2023-02-03T03:41:44;19.60;;;14.13;;
56299;SDS011;42209;6.376;-10.782;2023-02-03T03:44:14;21.80;;;16.65;;
56299;SDS011;42209;6.376;-10.782;2023-02-03T03:46:50;18.52;;;14.50;;
56299;SDS011;42209;6.376;-10.782;2023-02-03T03:49:22;22.70;;;16.45;;
56299;SDS011;42209;6.376;-10.782;2023-02-03T03:51:54;21.25;;;16.25;;
56299;SDS011;42209;6.376;-10.782;2023-02-03T03:54:26;19.73;;;15.23;;
56299;SDS011;42209;6.376;-10.782;2023-02-03T03:57:01;17.92;;;15.50;;
56299;SDS011;42209;6.376;-10.782;2023-02-03T03:59:37;23.98;;;16.65;;
56299;SDS011;42209;6.376;-10.782;2023-02-03T04:02:07;19.08;;;15.82;;
56299;SDS011;42209;6.376;-10.782;2023-02-03T04:04:36;20.65;;;14.50;;
56299;SDS011;42209;6.376;-10.782;2023-02-03T04:07:37;21.52;;;16.92;;
56299;SDS011;42209;6.376;-10.782;2023-02-03T04:13:00;22.00;;;16.40;;
56299;SDS011;42209;6.376;-10.782;2023-02-03T04:15:29;20.33;;;16.73;;
56299;SDS011;42209;6.376;-10.782;2023-02-03T04:17:58;18.40;;;15.90;;
56299;SDS011;42209;6.376;-10.782;2023-02-03T04:20:27;21.50;;;16.45;;
56299;SDS011;42209;6.376;-10.782;2023-02-03T04:22:56;23.73;;;15.63;;
56299;SDS011;42209;6.376;-10.782;2023-02-03T04:25:25;21.48;;;16.70;;
56299;SDS011;42209;6.376;-10.782;2023-02-03T04:27:54;19.80;;;16.25;;
56299;SDS011;42209;6.376;-10.782;2023-02-03T04:30:23;24.02;;;17.88;;
56299;SDS011;42209;6.376;-10.782;2023-02-03T04:32:52;19.55;;;16.05;;
56299;SDS011;42209;6.376;-10.782;2023-02-03T04:37:48;20.95;;;16.63;;
56299;SDS011;42209;6.376;-10.782;2023-02-03T04:40:17;24.25;;;17.35;;
56299;SDS011;42209;6.376;-10.782;2023-02-03T04:42:45;21.98;;;17.60;;
56299;SDS011;42209;6.376;-10.782;2023-02-03T04:45:14;23.05;;;18.23;;
56299;SDS011;42209;6.376;-10.782;2023-02-03T04:47:42;24.35;;;17.30;;
56299;SDS011;42209;6.376;-10.782;2023-02-03T04:50:10;26.17;;;17.92;;
56299;SDS011;42209;6.376;-10.782;2023-02-03T04:52:39;25.63;;;17.75;;
56299;SDS011;42209;6.376;-10.782;2023-02-03T04:55:07;24.00;;;19.25;;
56299;SDS011;42209;6.376;-10.782;2023-02-03T04:57:35;23.63;;;17.20;;
56299;SDS011;42209;6.376;-10.782;2023-02-03T05:00:04;25.27;;;18.80;;
56299;SDS011;42209;6.376;-10.782;2023-02-03T05:05:00;24.63;;;18.45;;
56299;SDS011;42209;6.376;-10.782;2023-02-03T05:07:29;22.20;;;16.35;;
56299;SDS011;42209;6.376;-10.782;2023-02-03T05:09:57;24.10;;;17.67;;
56299;SDS011;42209;6.376;-10.782;2023-02-03T05:12:25;26.02;;;18.63;;
56299;SDS011;42209;6.376;-10.782;2023-02-03T05:14:54;25.73;;;17.63;;
56299;SDS011;42209;6.376;-10.782;2023-02-03T05:17:22;28.33;;;19.73;;
56299;SDS011;42209;6.376;-10.782;2023-02-03T05:22:19;24.50;;;18.60;;
56299;SDS011;42209;6.376;-10.782;2023-02-03T05:24:47;25.15;;;19.08;;
56299;SDS011;42209;6.376;-10.782;2023-02-03T05:27:15;25.55;;;20.20;;
56299;SDS011;42209;6.376;-10.782;2023-02-03T05:29:44;26.48;;;18.63;;
56299;SDS011;42209;6.376;-10.782;2023-02-03T05:32:12;25.73;;;18.95;;
56299;SDS011;42209;6.376;-10.782;2023-02-03T05:34:40;26.02;;;19.65;;
56299;SDS011;42209;6.376;-10.782;2023-02-03T05:37:09;25.35;;;20.20;;
56299;SDS011;42209;6.376;-10.782;2023-02-03T05:39:37;26.77;;;18.38;;
56299;SDS011;42209;6.376;-10.782;2023-02-03T05:42:05;25.45;;;18.60;;
56299;SDS011;42209;6.376;-10.782;2023-02-03T05:44:34;24.80;;;19.05;;
56299;SDS011;42209;6.376;-10.782;2023-02-03T05:47:02;23.15;;;18.23;;
56299;SDS011;42209;6.376;-10.782;2023-02-03T05:49:30;25.85;;;19.02;;
56299;SDS011;42209;6.376;-10.782;2023-02-03T05:51:59;24.10;;;18.65;;
56299;SDS011;42209;6.376;-10.782;2023-02-03T05:54:27;22.17;;;17.95;;
56299;SDS011;42209;6.376;-10.782;2023-02-03T05:56:56;25.55;;;18.35;;
56299;SDS011;42209;6.376;-10.782;2023-02-03T05:59:24;24.38;;;17.80;;
56299;SDS011;42209;6.376;-10.782;2023-02-03T06:01:52;26.98;;;18.23;;
56299;SDS011;42209;6.376;-10.782;2023-02-03T06:04:20;21.42;;;16.25;;
56299;SDS011;42209;6.376;-10.782;2023-02-03T06:06:49;22.08;;;17.40;;
56299;SDS011;42209;6.376;-10.782;2023-02-03T06:09:17;22.83;;;17.27;;
56299;SDS011;42209;6.376;-10.782;2023-02-03T06:11:45;23.30;;;17.95;;
56299;SDS011;42209;6.376;-10.782;2023-02-03T06:14:14;21.73;;;16.15;;
56299;SDS011;42209;6.376;-10.782;2023-02-03T06:16:42;21.17;;;16.63;;
56299;SDS011;42209;6.376;-10.782;2023-02-03T06:19:11;22.23;;;17.02;;
56299;SDS011;42209;6.376;-10.782;2023-02-03T06:21:42;22.42;;;16.23;;
56299;SDS011;42209;6.376;-10.782;2023-02-03T06:24:10;20.98;;;15.68;;
56299;SDS011;42209;6.376;-10.782;2023-02-03T06:26:38;21.02;;;16.98;;
56299;SDS011;42209;6.376;-10.782;2023-02-03T06:29:07;22.70;;;16.38;;
56299;SDS011;42209;6.376;-10.782;2023-02-03T06:31:35;22.65;;;16.42;;
56299;SDS011;42209;6.376;-10.782;2023-02-03T06:34:03;20.33;;;15.88;;
56299;SDS011;42209;6.376;-10.782;2023-02-03T06:36:31;21.80;;;17.23;;
56299;SDS011;42209;6.376;-10.782;2023-02-03T06:39:00;19.95;;;15.82;;
56299;SDS011;42209;6.376;-10.782;2023-02-03T06:41:28;18.60;;;15.07;;
56299;SDS011;42209;6.376;-10.782;2023-02-03T06:43:57;22.63;;;15.82;;
56299;SDS011;42209;6.376;-10.782;2023-02-03T06:46:25;24.17;;;15.60;;
56299;SDS011;42209;6.376;-10.782;2023-02-03T06:48:53;19.42;;;16.15;;
56299;SDS011;42209;6.376;-10.782;2023-02-03T06:51:21;19.45;;;15.60;;
56299;SDS011;42209;6.376;-10.782;2023-02-03T06:53:49;20.92;;;15.63;;
56299;SDS011;42209;6.376;-10.782;2023-02-03T06:56:18;20.88;;;15.23;;
56299;SDS011;42209;6.376;-10.782;2023-02-03T06:58:46;18.52;;;15.20;;
56299;SDS011;42209;6.376;-10.782;2023-02-03T07:01:15;20.02;;;15.80;;
56299;SDS011;42209;6.376;-10.782;2023-02-03T07:03:43;19.40;;;15.02;;
56299;SDS011;42209;6.376;-10.782;2023-02-03T07:06:12;17.52;;;14.35;;
56299;SDS011;42209;6.376;-10.782;2023-02-03T07:11:09;17.67;;;14.25;;
56299;SDS011;42209;6.376;-10.782;2023-02-03T07:13:37;19.17;;;13.95;;
56299;SDS011;42209;6.376;-10.782;2023-02-03T07:16:06;22.77;;;15.93;;
56299;SDS011;42209;6.376;-10.782;2023-02-03T07:18:34;20.67;;;16.30;;
56299;SDS011;42209;6.376;-10.782;2023-02-03T07:21:14;20.83;;;15.07;;
56299;SDS011;42209;6.376;-10.782;2023-02-03T07:23:45;19.65;;;14.93;;
56299;SDS011;42209;6.376;-10.782;2023-02-03T07:26:15;24.83;;;16.85;;
56299;SDS011;42209;6.376;-10.782;2023-02-03T07:28:43;26.27;;;17.25;;
56299;SDS011;42209;6.376;-10.782;2023-02-03T07:31:12;25.02;;;17.27;;
56299;SDS011;42209;6.376;-10.782;2023-02-03T07:33:40;27.83;;;18.52;;
56299;SDS011;42209;6.376;-10.782;2023-02-03T07:36:09;27.60;;;17.10;;
56299;SDS011;42209;6.376;-10.782;2023-02-03T07:38:38;24.83;;;16.05;;
56299;SDS011;42209;6.376;-10.782;2023-02-03T07:41:06;25.92;;;16.70;;
56299;SDS011;42209;6.376;-10.782;2023-02-03T07:43:34;20.63;;;14.75;;
56299;SDS011;42209;6.376;-10.782;2023-02-03T07:46:03;20.88;;;15.02;;
56299;SDS011;42209;6.376;-10.782;2023-02-03T07:48:31;27.85;;;15.50;;
56299;SDS011;42209;6.376;-10.782;2023-02-03T07:51:00;22.60;;;15.27;;
56299;SDS011;42209;6.376;-10.782;2023-02-03T07:53:28;24.65;;;14.65;;
56299;SDS011;42209;6.376;-10.782;2023-02-03T07:56:00;23.02;;;15.13;;
56299;SDS011;42209;6.376;-10.782;2023-02-03T07:58:30;23.00;;;13.80;;
56299;SDS011;42209;6.376;-10.782;2023-02-03T08:03:27;19.48;;;13.20;;
56299;SDS011;42209;6.376;-10.782;2023-02-03T08:05:55;19.58;;;14.07;;
56299;SDS011;42209;6.376;-10.782;2023-02-03T08:08:24;20.35;;;13.43;;
56299;SDS011;42209;6.376;-10.782;2023-02-03T08:10:53;20.08;;;13.63;;
56299;SDS011;42209;6.376;-10.782;2023-02-03T08:13:22;24.02;;;13.63;;
56299;SDS011;42209;6.376;-10.782;2023-02-03T08:15:51;19.73;;;14.25;;
56299;SDS011;42209;6.376;-10.782;2023-02-03T08:20:48;20.17;;;13.70;;
56299;SDS011;42209;6.376;-10.782;2023-02-03T08:23:16;19.65;;;13.27;;
56299;SDS011;42209;6.376;-10.782;2023-02-03T08:25:49;16.63;;;11.80;;
56299;SDS011;42209;6.376;-10.782;2023-02-03T08:28:21;17.30;;;13.10;;
56299;SDS011;42209;6.376;-10.782;2023-02-03T08:30:49;17.15;;;12.90;;
56299;SDS011;42209;6.376;-10.782;2023-02-03T08:33:17;16.58;;;12.55;;
56299;SDS011;42209;6.376;-10.782;2023-02-03T08:35:46;16.10;;;12.23;;
56299;SDS011;42209;6.376;-10.782;2023-02-03T08:38:15;17.90;;;13.02;;
56299;SDS011;42209;6.376;-10.782;2023-02-03T08:40:44;19.92;;;13.02;;
56299;SDS011;42209;6.376;-10.782;2023-02-03T08:43:12;14.95;;;12.30;;
56299;SDS011;42209;6.376;-10.782;2023-02-03T08:45:41;15.52;;;11.13;;
56299;SDS011;42209;6.376;-10.782;2023-02-03T08:48:09;15.65;;;11.80;;
56299;SDS011;42209;6.376;-10.782;2023-02-03T08:50:39;15.60;;;11.95;;
56299;SDS011;42209;6.376;-10.782;2023-02-03T08:53:09;15.75;;;11.55;;
56299;SDS011;42209;6.376;-10.782;2023-02-03T08:55:38;13.15;;;10.68;;
56299;SDS011;42209;6.376;-10.782;2023-02-03T08:58:07;15.18;;;11.48;;
56299;SDS011;42209;6.376;-10.782;2023-02-03T09:00:35;13.68;;;11.18;;
56299;SDS011;42209;6.376;-10.782;2023-02-03T09:03:03;12.43;;;10.50;;
56299;SDS011;42209;6.376;-10.782;2023-02-03T09:05:32;14.45;;;11.38;;
56299;SDS011;42209;6.376;-10.782;2023-02-03T09:08:00;13.90;;;11.57;;
56299;SDS011;42209;6.376;-10.782;2023-02-03T09:10:28;14.57;;;11.90;;
56299;SDS011;42209;6.376;-10.782;2023-02-03T09:12:57;19.77;;;12.32;;
56299;SDS011;42209;6.376;-10.782;2023-02-03T09:15:25;13.55;;;11.40;;
56299;SDS011;42209;6.376;-10.782;2023-02-03T09:17:53;13.00;;;10.88;;
56299;SDS011;42209;6.376;-10.782;2023-02-03T09:20:22;14.73;;;11.07;;
56299;SDS011;42209;6.376;-10.782;2023-02-03T09:22:50;16.50;;;10.73;;
56299;SDS011;42209;6.376;-10.782;2023-02-03T09:25:19;11.93;;;10.18;;
56299;SDS011;42209;6.376;-10.782;2023-02-03T09:27:47;15.70;;;10.45;;
56299;SDS011;42209;6.376;-10.782;2023-02-03T09:30:16;13.93;;;10.55;;
56299;SDS011;42209;6.376;-10.782;2023-02-03T09:32:44;12.52;;;10.20;;
56299;SDS011;42209;6.376;-10.782;2023-02-03T09:35:12;14.10;;;10.57;;
56299;SDS011;42209;6.376;-10.782;2023-02-03T09:37:41;11.27;;;10.00;;
56299;SDS011;42209;6.376;-10.782;2023-02-03T09:40:11;10.65;;;9.48;;
56299;SDS011;42209;6.376;-10.782;2023-02-03T09:43:34;14.10;;;10.38;;
56299;SDS011;42209;6.376;-10.782;2023-02-03T09:45:59;12.63;;;9.43;;
56299;SDS011;42209;6.376;-10.782;2023-02-03T09:48:31;14.38;;;9.70;;
56299;SDS011;42209;6.376;-10.782;2023-02-03T09:51:05;12.20;;;8.95;;
56299;SDS011;42209;6.376;-10.782;2023-02-03T09:53:44;9.93;;;8.93;;
56299;SDS011;42209;6.376;-10.782;2023-02-03T09:56:36;10.90;;;8.85;;
56299;SDS011;42209;6.376;-10.782;2023-02-03T09:59:07;16.52;;;10.73;;
56299;SDS011;42209;6.376;-10.782;2023-02-03T10:04:31;10.23;;;9.07;;
56299;SDS011;42209;6.376;-10.782;2023-02-03T10:07:21;11.75;;;8.65;;
56299;SDS011;42209;6.376;-10.782;2023-02-03T10:10:13;13.27;;;9.68;;
56299;SDS011;42209;6.376;-10.782;2023-02-03T10:18:27;10.27;;;8.45;;
56299;SDS011;42209;6.376;-10.782;2023-02-03T10:21:03;9.35;;;8.35;;
56299;SDS011;42209;6.376;-10.782;2023-02-03T10:23:40;10.82;;;8.50;;
56299;SDS011;42209;6.376;-10.782;2023-02-03T10:26:15;11.82;;;9.27;;
56299;SDS011;42209;6.376;-10.782;2023-02-03T10:28:54;10.23;;;8.60;;
56299;SDS011;42209;6.376;-10.782;2023-02-03T10:31:29;11.25;;;8.77;;
56299;SDS011;42209;6.376;-10.782;2023-02-03T10:39:30;9.55;;;8.48;;
56299;SDS011;42209;6.376;-10.782;2023-02-03T10:41:59;9.80;;;8.43;;
56299;SDS011;42209;6.376;-10.782;2023-02-03T10:45:14;9.75;;;8.27;;
56299;SDS011;42209;6.376;-10.782;2023-02-03T10:50:06;10.40;;;8.30;;
56299;SDS011;42209;6.376;-10.782;2023-02-03T10:52:46;10.20;;;7.95;;
56299;SDS011;42209;6.376;-10.782;2023-02-03T10:57:49;9.98;;;7.93;;
56299;SDS011;42209;6.376;-10.782;2023-02-03T11:00:31;10.20;;;8.02;;
56299;SDS011;42209;6.376;-10.782;2023-02-03T11:05:56;8.57;;;7.68;;
56299;SDS011;42209;6.376;-10.782;2023-02-03T11:08:39;8.88;;;7.95;;
56299;SDS011;42209;6.376;-10.782;2023-02-03T11:11:29;9.15;;;7.70;;
56299;SDS011;42209;6.376;-10.782;2023-02-03T11:16:31;9.30;;;8.07;;
56299;SDS011;42209;6.376;-10.782;2023-02-03T11:19:14;8.95;;;7.20;;
56299;SDS011;42209;6.376;-10.782;2023-02-03T11:21:51;7.78;;;6.82;;
56299;SDS011;42209;6.376;-10.782;2023-02-03T11:24:25;7.32;;;6.50;;
56299;SDS011;42209;6.376;-10.782;2023-02-03T11:26:56;11.27;;;7.55;;
56299;SDS011;42209;6.376;-10.782;2023-02-03T11:29:39;9.82;;;8.15;;
56299;SDS011;42209;6.376;-10.782;2023-02-03T11:32:26;10.25;;;7.50;;
56299;SDS011;42209;6.376;-10.782;2023-02-03T11:35:02;8.38;;;6.97;;
56299;SDS011;42209;6.376;-10.782;2023-02-03T11:37:41;7.63;;;6.93;;
56299;SDS011;42209;6.376;-10.782;2023-02-03T11:51:05;7.50;;;6.80;;
56299;SDS011;42209;6.376;-10.782;2023-02-03T12:11:06;8.35;;;6.68;;
56299;SDS011;42209;6.376;-10.782;2023-02-03T12:25:33;9.05;;;6.57;;
56299;SDS011;42209;6.376;-10.782;2023-02-03T12:28:29;8.82;;;6.78;;
56299;SDS011;42209;6.376;-10.782;2023-02-03T12:37:33;7.05;;;6.35;;
56299;SDS011;42209;6.376;-10.782;2023-02-03T12:49:45;8.52;;;6.00;;
56299;SDS011;42209;6.376;-10.782;2023-02-03T12:51:54;9.20;;;6.70;;
56299;SDS011;42209;6.376;-10.782;2023-02-03T13:11:23;6.75;;;5.97;;
56299;SDS011;42209;6.376;-10.782;2023-02-03T13:14:23;7.85;;;5.85;;
56299;SDS011;42209;6.376;-10.782;2023-02-03T13:17:07;9.98;;;7.05;;
56299;SDS011;42209;6.376;-10.782;2023-02-03T13:19:49;8.10;;;5.78;;
56299;SDS011;42209;6.376;-10.782;2023-02-03T13:22:31;5.90;;;5.30;;
56299;SDS011;42209;6.376;-10.782;2023-02-03T13:25:13;8.32;;;6.15;;
56299;SDS011;42209;6.376;-10.782;2023-02-03T13:27:54;6.20;;;5.60;;
56299;SDS011;42209;6.376;-10.782;2023-02-03T13:44:45;6.70;;;5.85;;
56299;SDS011;42209;6.376;-10.782;2023-02-03T13:47:18;7.85;;;6.65;;
56299;SDS011;42209;6.376;-10.782;2023-02-03T13:49:54;7.78;;;7.05;;
56299;SDS011;42209;6.376;-10.782;2023-02-03T13:55:00;10.20;;;7.78;;
56299;SDS011;42209;6.376;-10.782;2023-02-03T13:57:38;8.85;;;7.93;;
56299;SDS011;42209;6.376;-10.782;2023-02-03T14:05:56;10.02;;;7.88;;
56299;SDS011;42209;6.376;-10.782;2023-02-03T14:16:46;8.40;;;7.50;;
56299;SDS011;42209;6.376;-10.782;2023-02-03T14:24:40;12.18;;;9.07;;
56299;SDS011;42209;6.376;-10.782;2023-02-03T14:27:30;9.90;;;8.23;;
56299;SDS011;42209;6.376;-10.782;2023-02-03T14:30:16;8.95;;;8.02;;
56299;SDS011;42209;6.376;-10.782;2023-02-03T14:32:48;11.68;;;9.25;;
56299;SDS011;42209;6.376;-10.782;2023-02-03T14:35:36;12.57;;;9.00;;
56299;SDS011;42209;6.376;-10.782;2023-02-03T14:38:12;11.52;;;8.90;;
56299;SDS011;42209;6.376;-10.782;2023-02-03T14:48:29;16.05;;;9.00;;
56299;SDS011;42209;6.376;-10.782;2023-02-03T14:51:23;11.90;;;8.18;;
56299;SDS011;42209;6.376;-10.782;2023-02-03T14:54:20;14.45;;;9.15;;
56299;SDS011;42209;6.376;-10.782;2023-02-03T15:05:43;13.32;;;9.32;;
56299;SDS011;42209;6.376;-10.782;2023-02-03T15:14:23;13.35;;;8.48;;
56299;SDS011;42209;6.376;-10.782;2023-02-03T15:16:54;12.32;;;9.27;;
56299;SDS011;42209;6.376;-10.782;2023-02-03T15:19:34;11.95;;;9.05;;
56299;SDS011;42209;6.376;-10.782;2023-02-03T15:22:17;10.95;;;8.00;;
56299;SDS011;42209;6.376;-10.782;2023-02-03T15:24:45;18.45;;;8.90;;
56299;SDS011;42209;6.376;-10.782;2023-02-03T15:27:24;12.13;;;8.13;;
56299;SDS011;42209;6.376;-10.782;2023-02-03T15:29:54;11.77;;;9.00;;
56299;SDS011;42209;6.376;-10.782;2023-02-03T15:32:27;11.32;;;7.85;;
56299;SDS011;42209;6.376;-10.782;2023-02-03T15:35:01;13.53;;;8.20;;
56299;SDS011;42209;6.376;-10.782;2023-02-03T15:37:47;10.95;;;8.27;;
56299;SDS011;42209;6.376;-10.782;2023-02-03T15:40:23;9.88;;;8.02;;
56299;SDS011;42209;6.376;-10.782;2023-02-03T15:45:38;11.40;;;8.40;;
56299;SDS011;42209;6.376;-10.782;2023-02-03T15:51:01;11.05;;;7.97;;
56299;SDS011;42209;6.376;-10.782;2023-02-03T15:53:52;12.27;;;7.65;;
56299;SDS011;42209;6.376;-10.782;2023-02-03T15:56:35;9.90;;;7.40;;
56299;SDS011;42209;6.376;-10.782;2023-02-03T15:59:18;11.40;;;7.25;;
56299;SDS011;42209;6.376;-10.782;2023-02-03T16:02:21;11.43;;;8.35;;
56299;SDS011;42209;6.376;-10.782;2023-02-03T16:10:53;10.23;;;7.55;;
56299;SDS011;42209;6.376;-10.782;2023-02-03T16:13:22;10.95;;;8.52;;
56299;SDS011;42209;6.376;-10.782;2023-02-03T16:19:02;12.73;;;8.45;;
56299;SDS011;42209;6.376;-10.782;2023-02-03T16:21:36;9.00;;;8.02;;
56299;SDS011;42209;6.376;-10.782;2023-02-03T16:27:18;9.52;;;7.68;;
56299;SDS011;42209;6.376;-10.782;2023-02-03T16:29:53;8.93;;;7.18;;
56299;SDS011;42209;6.376;-10.782;2023-02-03T16:32:30;10.25;;;7.93;;
56299;SDS011;42209;6.376;-10.782;2023-02-03T16:34:59;10.30;;;7.55;;
56299;SDS011;42209;6.376;-10.782;2023-02-03T16:37:31;12.55;;;7.15;;
56299;SDS011;42209;6.376;-10.782;2023-02-03T16:40:01;8.93;;;6.78;;
56299;SDS011;42209;6.376;-10.782;2023-02-03T16:45:11;8.18;;;6.55;;
56299;SDS011;42209;6.376;-10.782;2023-02-03T16:47:43;8.13;;;6.80;;
56299;SDS011;42209;6.376;-10.782;2023-02-03T16:50:19;9.15;;;7.53;;
56299;SDS011;42209;6.376;-10.782;2023-02-03T16:53:03;9.38;;;7.20;;
56299;SDS011;42209;6.376;-10.782;2023-02-03T16:55:32;10.48;;;7.07;;
56299;SDS011;42209;6.376;-10.782;2023-02-03T16:58:00;8.75;;;6.95;;
56299;SDS011;42209;6.376;-10.782;2023-02-03T17:00:29;9.77;;;6.90;;
56299;SDS011;42209;6.376;-10.782;2023-02-03T17:02:57;10.80;;;7.15;;
56299;SDS011;42209;6.376;-10.782;2023-02-03T17:05:29;9.82;;;7.45;;
56299;SDS011;42209;6.376;-10.782;2023-02-03T17:07:58;13.30;;;7.97;;
56299;SDS011;42209;6.376;-10.782;2023-02-03T17:10:26;10.52;;;7.53;;
56299;SDS011;42209;6.376;-10.782;2023-02-03T17:12:55;9.25;;;7.60;;
56299;SDS011;42209;6.376;-10.782;2023-02-03T17:15:23;13.63;;;8.20;;
56299;SDS011;42209;6.376;-10.782;2023-02-03T17:17:51;8.23;;;7.40;;
56299;SDS011;42209;6.376;-10.782;2023-02-03T17:20:20;9.27;;;7.38;;
56299;SDS011;42209;6.376;-10.782;2023-02-03T17:22:48;9.57;;;7.22;;
56299;SDS011;42209;6.376;-10.782;2023-02-03T17:25:16;10.02;;;7.38;;
56299;SDS011;42209;6.376;-10.782;2023-02-03T17:27:45;8.57;;;7.18;;
56299;SDS011;42209;6.376;-10.782;2023-02-03T17:30:14;10.85;;;7.57;;
56299;SDS011;42209;6.376;-10.782;2023-02-03T17:32:42;10.07;;;7.05;;
56299;SDS011;42209;6.376;-10.782;2023-02-03T17:35:11;9.98;;;7.45;;
56299;SDS011;42209;6.376;-10.782;2023-02-03T17:37:39;11.18;;;7.13;;
56299;SDS011;42209;6.376;-10.782;2023-02-03T17:40:07;9.90;;;7.35;;
56299;SDS011;42209;6.376;-10.782;2023-02-03T17:42:53;10.02;;;6.95;;
56299;SDS011;42209;6.376;-10.782;2023-02-03T17:45:40;10.02;;;7.22;;
56299;SDS011;42209;6.376;-10.782;2023-02-03T17:48:25;9.50;;;7.28;;
56299;SDS011;42209;6.376;-10.782;2023-02-03T17:51:15;9.02;;;7.50;;
56299;SDS011;42209;6.376;-10.782;2023-02-03T17:54:05;10.82;;;7.88;;
56299;SDS011;42209;6.376;-10.782;2023-02-03T17:56:34;9.38;;;7.18;;
56299;SDS011;42209;6.376;-10.782;2023-02-03T17:59:03;11.07;;;7.80;;
56299;SDS011;42209;6.376;-10.782;2023-02-03T18:01:31;10.02;;;7.95;;
56299;SDS011;42209;6.376;-10.782;2023-02-03T18:04:00;10.40;;;7.30;;
56299;SDS011;42209;6.376;-10.782;2023-02-03T18:06:31;9.05;;;7.15;;
56299;SDS011;42209;6.376;-10.782;2023-02-03T18:09:00;12.65;;;8.38;;
56299;SDS011;42209;6.376;-10.782;2023-02-03T18:11:33;8.95;;;7.50;;
56299;SDS011;42209;6.376;-10.782;2023-02-03T18:14:02;10.05;;;7.85;;